| time (UTC) | temp F | wind direction | speed knots | gust knots | rain 1hr in | rain 24hr in | rain mn in | humidity % | barometer mb |
| 20260903043756 | 73 | 305 | 0.0 | 0.0 | 0.00 | 0.00 | 0.00 | 95 | 1017.0 |
| 20260903043256 | 73 | 305 | 0.0 | 0.0 | 0.00 | 0.00 | 0.00 | 95 | 1016.8 |
| 20260903042755 | 73 | 305 | 0.0 | 0.0 | 0.00 | 0.00 | 0.00 | 95 | 1016.9 |
| 20260903042251 | 73 | 305 | 0.0 | 0.0 | 0.00 | 0.00 | 0.00 | 94 | 1017.0 |
| 20260903041747 | 74 | 305 | 0.0 | 0.0 | 0.00 | 0.00 | 0.00 | 94 | 1016.8 |
| 20260903041243 | 74 | 304 | 0.0 | 0.0 | 0.00 | 0.00 | 0.00 | 95 | 1016.9 |
| 20260903040742 | 74 | 304 | 0.0 | 0.0 | 0.00 | 0.00 | 0.00 | 95 | 1016.9 |
| 20260903040237 | 74 | 305 | 0.0 | 0.0 | 0.00 | 0.00 | 0.00 | 95 | 1017.0 |
| 20260903035733 | 74 | 305 | 0.0 | 0.0 | 0.00 | 0.00 | 0.00 | 95 | 1016.8 |
| 20260903035229 | 74 | 304 | 0.0 | 0.0 | 0.00 | 0.00 | 0.00 | 95 | 1016.8 |
| 20260903034729 | 74 | 305 | 0.0 | 0.0 | 0.00 | 0.00 | 0.00 | 95 | 1016.9 |
| 20260903034224 | 74 | 305 | 0.0 | 0.0 | 0.00 | 0.00 | 0.00 | 95 | 1016.9 |
| 20260903033719 | 74 | 305 | 0.0 | 0.0 | 0.00 | 0.00 | 0.00 | 95 | 1016.9 |
| 20260903033220 | 74 | 305 | 0.0 | 0.0 | 0.00 | 0.00 | 0.00 | 95 | 1016.9 |
| 20260903032714 | 74 | 305 | 0.0 | 0.0 | 0.00 | 0.00 | 0.00 | 95 | 1016.7 |
| 20260903032210 | 74 | 305 | 0.0 | 0.0 | 0.00 | 0.00 | 0.00 | 95 | 1016.8 |
| 20260903031706 | 74 | 305 | 0.0 | 0.0 | 0.00 | 0.00 | 0.00 | 95 | 1017.0 |
| 20260903031205 | 74 | 305 | 0.0 | 0.0 | 0.00 | 0.00 | 0.00 | 94 | 1017.1 |
| 20260903030701 | 74 | 305 | 0.0 | 0.0 | 0.00 | 0.00 | 0.00 | 94 | 1017.1 |
| 20260903030157 | 75 | 305 | 0.0 | 0.0 | 0.00 | 0.00 | 0.00 | 94 | 1017.3 |
| 20260903025652 | 75 | 304 | 0.0 | 0.0 | 0.00 | 0.00 | 0.00 | 94 | 1017.1 |
| 20260903025148 | 75 | 305 | 0.0 | 0.0 | 0.00 | 0.00 | 0.00 | 94 | 1017.0 |
| 20260903024642 | 75 | 305 | 0.0 | 0.0 | 0.00 | 0.00 | 0.00 | 93 | 1016.8 |
| 20260903024141 | 75 | 305 | 0.0 | 0.0 | 0.00 | 0.00 | 0.00 | 93 | 1016.9 |
| 20260903023637 | 75 | 305 | 0.0 | 0.0 | 0.00 | 0.00 | 0.00 | 92 | 1017.3 |
| 20260903023137 | 75 | 305 | 0.0 | 0.0 | 0.00 | 0.00 | 0.00 | 92 | 1017.4 |
| 20260903022632 | 75 | 305 | 0.0 | 0.0 | 0.00 | 0.00 | 0.00 | 92 | 1017.1 |
| 20260903022131 | 76 | 305 | 0.0 | 0.0 | 0.00 | 0.00 | 0.00 | 91 | 1017.0 |
| 20260903021626 | 76 | 305 | 0.0 | 0.0 | 0.00 | 0.00 | 0.00 | 91 | 1017.1 |
| 20260903021125 | 76 | 305 | 0.0 | 0.0 | 0.00 | 0.00 | 0.00 | 90 | 1016.9 |
| 20260903020622 | 76 | 305 | 0.0 | 0.0 | 0.00 | 0.00 | 0.00 | 90 | 1017.0 |
| 20260903020121 | 76 | 305 | 0.0 | 0.0 | 0.00 | 0.00 | 0.00 | 89 | 1017.3 |
| 20260903015617 | 76 | 305 | 0.0 | 0.0 | 0.00 | 0.00 | 0.00 | 89 | 1017.3 |
| 20260903015113 | 77 | 305 | 0.0 | 0.0 | 0.00 | 0.00 | 0.00 | 90 | 1017.0 |
| 20260903014612 | 77 | 305 | 0.0 | 0.0 | 0.00 | 0.00 | 0.00 | 90 | 1017.1 |
| 20260903014113 | 77 | 305 | 0.0 | 0.0 | 0.00 | 0.00 | 0.00 | 88 | 1017.3 |
| 20260903013613 | 77 | 305 | 0.0 | 0.0 | 0.00 | 0.00 | 0.00 | 87 | 1017.3 |
| 20260903013107 | 77 | 305 | 0.0 | 0.0 | 0.00 | 0.00 | 0.00 | 86 | 1017.0 |
| 20260903012606 | 77 | 305 | 0.0 | 0.0 | 0.00 | 0.00 | 0.00 | 85 | 1017.3 |
| 20260903012106 | 78 | 305 | 0.0 | 0.0 | 0.00 | 0.00 | 0.00 | 85 | 1017.1 |
| 20260903011605 | 78 | 305 | 0.0 | 0.0 | 0.00 | 0.00 | 0.00 | 85 | 1016.8 |
| 20260903011105 | 78 | 305 | 0.0 | 0.0 | 0.00 | 0.00 | 0.00 | 84 | 1017.1 |
| 20260903010601 | 78 | 305 | 0.0 | 0.0 | 0.00 | 0.00 | 0.00 | 84 | 1016.9 |
| 20260903010059 | 79 | 305 | 0.0 | 0.0 | 0.00 | 0.00 | 0.00 | 84 | 1016.9 |
| 20260903005554 | 79 | 304 | 0.0 | 0.0 | 0.00 | 0.00 | 0.00 | 84 | 1016.7 |
| 20260903005050 | 80 | 303 | 0.0 | 0.0 | 0.00 | 0.00 | 0.00 | 83 | 1016.8 |
| 20260903004550 | 80 | 303 | 0.0 | 0.0 | 0.00 | 0.00 | 0.00 | 81 | 1016.8 |
| 20260903004045 | 81 | 304 | 0.0 | 0.0 | 0.00 | 0.00 | 0.00 | 78 | 1016.7 |
| 20260903003541 | 81 | 304 | 0.0 | 0.0 | 0.00 | 0.00 | 0.00 | 77 | 1016.7 |
| 20260903003036 | 82 | 304 | 0.0 | 0.0 | 0.00 | 0.00 | 0.00 | 76 | 1016.5 |
| 20260903002531 | 82 | 304 | 0.0 | 0.0 | 0.00 | 0.00 | 0.00 | 74 | 1016.7 |
| 20260903002031 | 83 | 304 | 0.0 | 0.0 | 0.00 | 0.00 | 0.00 | 73 | 1016.6 |
| 20260903001526 | 84 | 303 | 0.0 | 0.0 | 0.00 | 0.00 | 0.00 | 71 | 1016.7 |
| 20260903001025 | 85 | 297 | 0.0 | 0.0 | 0.00 | 0.00 | 0.00 | 68 | 1016.6 |
| 20260903000521 | 87 | 297 | 0.0 | 0.0 | 0.00 | 0.00 | 0.00 | 65 | 1016.6 |
| 20260903000020 | 88 | 296 | 0.0 | 0.0 | 0.00 | 0.00 | 0.00 | 61 | 1016.7 |
| 20260902235514 | 89 | 296 | 0.0 | 0.0 | 0.00 | 0.00 | 0.00 | 62 | 1016.8 |
| 20260902235009 | 91 | 295 | 0.0 | 0.0 | 0.00 | 0.00 | 0.00 | 58 | 1016.6 |
| 20260902234503 | 92 | 295 | 0.0 | 0.0 | 0.00 | 0.00 | 0.00 | 55 | 1016.7 |
| 20260902234002 | 94 | 295 | 0.0 | 0.0 | 0.00 | 0.00 | 0.00 | 57 | 1016.6 |
| 20260902233502 | 95 | 295 | 0.0 | 0.0 | 0.00 | 0.00 | 0.00 | 55 | 1016.6 |
| 20260902232956 | 97 | 296 | 0.0 | 0.0 | 0.00 | 0.00 | 0.00 | 51 | 1016.7 |
| 20260902232450 | 96 | 295 | 0.0 | 0.0 | 0.00 | 0.00 | 0.00 | 48 | 1016.7 |
| 20260902231950 | 96 | 295 | 0.0 | 0.0 | 0.00 | 0.00 | 0.00 | 50 | 1017.0 |
| 20260902231445 | 95 | 295 | 0.0 | 0.0 | 0.00 | 0.00 | 0.00 | 51 | 1016.7 |
| 20260902230940 | 95 | 297 | 0.0 | 0.0 | 0.00 | 0.00 | 0.00 | 50 | 1016.7 |
| 20260902230439 | 95 | 297 | 0.9 | 0.9 | 0.00 | 0.00 | 0.00 | 48 | 1016.8 |
| 20260902225933 | 95 | 323 | 0.0 | 0.9 | 0.00 | 0.00 | 0.00 | 46 | 1016.7 |
| 20260902225428 | 95 | 329 | 0.0 | 1.7 | 0.00 | 0.00 | 0.00 | 48 | 1016.9 |
| 20260902224927 | 95 | 327 | 1.7 | 2.6 | 0.00 | 0.00 | 0.00 | 45 | 1016.6 |
| 20260902224427 | 96 | 320 | 0.9 | 1.7 | 0.00 | 0.00 | 0.00 | 43 | 1016.7 |
| 20260902223924 | 96 | 306 | 0.0 | 0.9 | 0.00 | 0.00 | 0.00 | 44 | 1016.8 |
| 20260902223425 | 95 | 296 | 0.9 | 0.9 | 0.00 | 0.00 | 0.00 | 48 | 1016.8 |
| 20260902222924 | 95 | 4 | 1.7 | 2.6 | 0.00 | 0.00 | 0.00 | 44 | 1016.8 |
| 20260902222423 | 95 | 297 | 0.9 | 2.6 | 0.00 | 0.00 | 0.00 | 45 | 1017.0 |
| 20260902221922 | 95 | 307 | 1.7 | 2.6 | 0.00 | 0.00 | 0.00 | 45 | 1016.8 |
| 20260902221421 | 95 | 322 | 1.7 | 1.7 | 0.00 | 0.00 | 0.00 | 45 | 1016.8 |
| 20260902220917 | 95 | 326 | 2.6 | 3.5 | 0.00 | 0.00 | 0.00 | 45 | 1017.0 |
| 20260902220417 | 95 | 14 | 3.5 | 3.5 | 0.00 | 0.00 | 0.00 | 43 | 1017.1 |
| 20260902215912 | 96 | 288 | 1.7 | 3.5 | 0.00 | 0.00 | 0.00 | 43 | 1017.0 |
| 20260902215408 | 95 | 279 | 0.9 | 2.6 | 0.00 | 0.00 | 0.00 | 42 | 1017.0 |
| 20260902214904 | 96 | 315 | 1.7 | 2.6 | 0.00 | 0.00 | 0.00 | 45 | 1016.9 |
| 20260902214403 | 96 | 294 | 1.7 | 2.6 | 0.00 | 0.00 | 0.00 | 43 | 1017.0 |
| 20260902213857 | 96 | 315 | 3.5 | 5.2 | 0.00 | 0.00 | 0.00 | 45 | 1017.3 |
| 20260902213354 | 96 | 321 | 1.7 | 1.7 | 0.00 | 0.00 | 0.00 | 45 | 1017.4 |
| 20260902212852 | 96 | 306 | 2.6 | 2.6 | 0.00 | 0.00 | 0.00 | 43 | 1017.0 |
| 20260902212348 | 96 | 309 | 1.7 | 2.6 | 0.00 | 0.00 | 0.00 | 44 | 1017.3 |
| 20260902211845 | 96 | 295 | 0.9 | 0.9 | 0.00 | 0.00 | 0.00 | 45 | 1017.1 |
| 20260902211340 | 96 | 298 | 1.7 | 3.5 | 0.00 | 0.00 | 0.00 | 45 | 1017.4 |
| 20260902210835 | 96 | 297 | 3.5 | 2.6 | 0.00 | 0.00 | 0.00 | 45 | 1017.5 |
| 20260902210334 | 96 | 328 | 3.5 | 3.5 | 0.00 | 0.00 | 0.00 | 46 | 1017.4 |
| 20260902205833 | 95 | 318 | 3.5 | 3.5 | 0.00 | 0.00 | 0.00 | 46 | 1017.3 |
| 20260902205328 | 96 | 276 | 3.5 | 6.1 | 0.00 | 0.00 | 0.00 | 43 | 1017.3 |
| 20260902204823 | 95 | 288 | 1.7 | 2.6 | 0.00 | 0.00 | 0.00 | 43 | 1017.4 |
| 20260902204318 | 95 | 7 | 2.6 | 5.2 | 0.00 | 0.00 | 0.00 | 44 | 1017.1 |
| 20260902203814 | 96 | 1 | 5.2 | 7.0 | 0.00 | 0.00 | 0.00 | 44 | 1017.5 |
| 20260902203309 | 95 | 347 | 1.7 | 5.2 | 0.00 | 0.00 | 0.00 | 45 | 1017.5 |
| 20260902202808 | 96 | 332 | 3.5 | 6.1 | 0.00 | 0.00 | 0.00 | 43 | 1017.6 |
| 20260902202306 | 96 | 249 | 2.6 | 3.5 | 0.00 | 0.00 | 0.00 | 46 | 1017.5 |
| 20260902201801 | 95 | 302 | 1.7 | 1.7 | 0.00 | 0.00 | 0.00 | 45 | 1017.6 |
| 20260902201301 | 95 | 327 | 3.5 | 5.2 | 0.00 | 0.00 | 0.00 | 45 | 1017.6 |
| 20260902200756 | 96 | 342 | 3.5 | 5.2 | 0.00 | 0.00 | 0.00 | 45 | 1017.6 |
| 20260902200251 | 96 | 339 | 2.6 | 2.6 | 0.00 | 0.00 | 0.00 | 47 | 1017.7 |
| 20260902195746 | 95 | 257 | 1.7 | 3.5 | 0.00 | 0.00 | 0.00 | 46 | 1017.6 |
| 20260902195246 | 95 | 348 | 1.7 | 2.6 | 0.00 | 0.00 | 0.00 | 45 | 1017.9 |
| 20260902194746 | 95 | 332 | 3.5 | 6.1 | 0.00 | 0.00 | 0.00 | 49 | 1017.8 |
| 20260902194241 | 95 | 276 | 3.5 | 3.5 | 0.00 | 0.00 | 0.00 | 46 | 1018.0 |
| 20260902193737 | 95 | 277 | 2.6 | 5.2 | 0.00 | 0.00 | 0.00 | 44 | 1017.8 |
| 20260902193232 | 95 | 292 | 2.6 | 3.5 | 0.00 | 0.00 | 0.00 | 45 | 1018.1 |
| 20260902192730 | 95 | 273 | 3.5 | 5.2 | 0.00 | 0.00 | 0.00 | 45 | 1018.2 |
| 20260902192230 | 95 | 284 | 2.6 | 6.1 | 0.00 | 0.00 | 0.00 | 49 | 1018.0 |
| 20260902191724 | 95 | 289 | 3.5 | 3.5 | 0.00 | 0.00 | 0.00 | 49 | 1018.1 |
| 20260902191219 | 95 | 352 | 3.5 | 3.5 | 0.00 | 0.00 | 0.00 | 50 | 1018.5 |
| 20260902190715 | 94 | 323 | 3.5 | 3.5 | 0.00 | 0.00 | 0.00 | 47 | 1018.4 |
| 20260902190214 | 95 | 230 | 3.5 | 6.1 | 0.00 | 0.00 | 0.00 | 48 | 1018.2 |
| 20260902185710 | 94 | 291 | 3.5 | 6.1 | 0.00 | 0.00 | 0.00 | 49 | 1018.2 |
| 20260902185208 | 95 | 311 | 3.5 | 5.2 | 0.00 | 0.00 | 0.00 | 52 | 1018.3 |
| 20260902184707 | 95 | 311 | 2.6 | 2.6 | 0.00 | 0.00 | 0.00 | 48 | 1018.3 |
| 20260902184202 | 95 | 330 | 2.6 | 5.2 | 0.00 | 0.00 | 0.00 | 50 | 1018.5 |
| 20260902183658 | 95 | 324 | 3.5 | 5.2 | 0.00 | 0.00 | 0.00 | 48 | 1018.4 |
| 20260902183154 | 95 | 308 | 2.6 | 5.2 | 0.00 | 0.00 | 0.00 | 49 | 1018.3 |
| 20260902182650 | 95 | 305 | 5.2 | 6.1 | 0.00 | 0.00 | 0.00 | 50 | 1018.4 |
| 20260902182146 | 94 | 301 | 1.7 | 3.5 | 0.00 | 0.00 | 0.00 | 48 | 1018.4 |
| 20260902181642 | 94 | 297 | 1.7 | 5.2 | 0.00 | 0.00 | 0.00 | 53 | 1018.4 |
| 20260902181142 | 94 | 325 | 2.6 | 6.1 | 0.00 | 0.00 | 0.00 | 51 | 1018.8 |
| 20260902180641 | 94 | 321 | 2.6 | 3.5 | 0.00 | 0.00 | 0.00 | 49 | 1018.6 |
| 20260902180138 | 94 | 250 | 0.9 | 2.6 | 0.00 | 0.00 | 0.00 | 56 | 1018.7 |
| 20260902175637 | 93 | 324 | 5.2 | 6.1 | 0.00 | 0.00 | 0.00 | 51 | 1018.6 |
| 20260902175133 | 93 | 323 | 7.0 | 8.7 | 0.00 | 0.00 | 0.00 | 49 | 1018.6 |
| 20260902174629 | 94 | 242 | 2.6 | 6.1 | 0.00 | 0.00 | 0.00 | 53 | 1019.0 |
| 20260902174125 | 95 | 189 | 4.3 | 5.2 | 0.00 | 0.00 | 0.00 | 48 | 1018.7 |
| 20260902173620 | 94 | 300 | 3.5 | 3.5 | 0.00 | 0.00 | 0.00 | 50 | 1018.9 |
| 20260902173115 | 95 | 234 | 1.7 | 5.2 | 0.00 | 0.00 | 0.00 | 50 | 1018.9 |
| 20260902172609 | 94 | 278 | 0.9 | 0.9 | 0.00 | 0.00 | 0.00 | 51 | 1018.9 |
| 20260902172109 | 93 | 313 | 2.6 | 3.5 | 0.00 | 0.00 | 0.00 | 52 | 1019.3 |
| 20260902171605 | 94 | 331 | 5.2 | 7.0 | 0.00 | 0.00 | 0.00 | 52 | 1019.1 |
| 20260902171101 | 93 | 284 | 5.2 | 5.2 | 0.00 | 0.00 | 0.00 | 52 | 1019.1 |
| 20260902170555 | 93 | 14 | 1.7 | 2.6 | 0.00 | 0.00 | 0.00 | 54 | 1019.5 |
| 20260902170051 | 93 | 313 | 4.3 | 5.2 | 0.00 | 0.00 | 0.00 | 52 | 1019.3 |
| 20260902165551 | 93 | 297 | 2.6 | 5.2 | 0.00 | 0.00 | 0.00 | 52 | 1019.3 |
| 20260902165045 | 93 | 298 | 3.5 | 6.1 | 0.00 | 0.00 | 0.00 | 57 | 1019.6 |
| 20260902164541 | 93 | 337 | 3.5 | 5.2 | 0.00 | 0.00 | 0.00 | 57 | 1019.4 |
| 20260902164039 | 92 | 326 | 3.5 | 6.1 | 0.00 | 0.00 | 0.00 | 55 | 1019.5 |
| 20260902163536 | 92 | 325 | 4.3 | 5.2 | 0.00 | 0.00 | 0.00 | 55 | 1019.8 |
| 20260902163034 | 92 | 332 | 5.2 | 7.0 | 0.00 | 0.00 | 0.00 | 57 | 1019.9 |
| 20260902162533 | 93 | 13 | 3.5 | 5.2 | 0.00 | 0.00 | 0.00 | 54 | 1019.7 |
| 20260902162029 | 93 | 338 | 0.9 | 2.6 | 0.00 | 0.00 | 0.00 | 56 | 1019.6 |
| 20260902161523 | 93 | 293 | 1.7 | 2.6 | 0.00 | 0.00 | 0.00 | 56 | 1019.7 |
| 20260902161019 | 93 | 265 | 2.6 | 3.5 | 0.00 | 0.00 | 0.00 | 59 | 1019.6 |
| 20260902160515 | 92 | 244 | 1.7 | 2.6 | 0.00 | 0.00 | 0.00 | 60 | 1019.7 |
| 20260902160015 | 92 | 313 | 2.6 | 2.6 | 0.00 | 0.00 | 0.00 | 60 | 1019.7 |
| 20260902155508 | 92 | 324 | 3.5 | 5.2 | 0.00 | 0.00 | 0.00 | 57 | 1019.9 |
| 20260902155007 | 91 | 300 | 2.6 | 5.2 | 0.00 | 0.00 | 0.00 | 55 | 1019.8 |
| 20260902154503 | 91 | 324 | 2.6 | 2.6 | 0.00 | 0.00 | 0.00 | 58 | 1020.0 |
| 20260902153957 | 91 | 63 | 1.7 | 6.1 | 0.00 | 0.00 | 0.00 | 56 | 1019.7 |
| 20260902153455 | 92 | 7 | 3.5 | 6.1 | 0.00 | 0.00 | 0.00 | 59 | 1019.7 |
| 20260902152951 | 91 | 348 | 3.5 | 3.5 | 0.00 | 0.00 | 0.00 | 57 | 1019.8 |
| 20260902152448 | 90 | 351 | 2.6 | 3.5 | 0.00 | 0.00 | 0.00 | 59 | 1020.1 |
| 20260902151943 | 90 | 302 | 1.7 | 2.6 | 0.00 | 0.00 | 0.00 | 60 | 1019.8 |
| 20260902151439 | 89 | 39 | 2.6 | 2.6 | 0.00 | 0.00 | 0.00 | 61 | 1019.8 |
| 20260902150938 | 90 | 296 | 2.6 | 3.5 | 0.00 | 0.00 | 0.00 | 61 | 1019.9 |
| 20260902150435 | 90 | 2 | 0.9 | 3.5 | 0.00 | 0.00 | 0.00 | 63 | 1019.8 |
| 20260902145934 | 90 | 359 | 1.7 | 3.5 | 0.00 | 0.00 | 0.00 | 61 | 1019.8 |
| 20260902145430 | 90 | 41 | 0.9 | 1.7 | 0.00 | 0.00 | 0.00 | 60 | 1019.7 |
| 20260902144924 | 89 | 343 | 0.9 | 2.6 | 0.00 | 0.00 | 0.00 | 61 | 1019.8 |
| 20260902144420 | 88 | 268 | 0.9 | 1.7 | 0.00 | 0.00 | 0.00 | 65 | 1019.6 |
| 20260902143920 | 88 | 320 | 0.9 | 0.9 | 0.00 | 0.00 | 0.00 | 65 | 1019.7 |
| 20260902143415 | 88 | 238 | 1.7 | 2.6 | 0.00 | 0.00 | 0.00 | 64 | 1019.8 |
| 20260902142910 | 89 | 323 | 2.6 | 2.6 | 0.00 | 0.00 | 0.00 | 62 | 1019.8 |
| 20260902142407 | 88 | 187 | 0.9 | 0.9 | 0.00 | 0.00 | 0.00 | 67 | 1019.5 |
| 20260902141902 | 87 | 245 | 0.0 | 0.9 | 0.00 | 0.00 | 0.00 | 69 | 1019.9 |
| 20260902141357 | 86 | 334 | 0.0 | 0.9 | 0.00 | 0.00 | 0.00 | 70 | 1019.8 |
| 20260902140856 | 85 | 310 | 0.9 | 1.7 | 0.00 | 0.00 | 0.00 | 69 | 1019.8 |
| 20260902140352 | 85 | 277 | 2.6 | 3.5 | 0.00 | 0.00 | 0.00 | 68 | 1019.6 |
| 20260902135852 | 84 | 233 | 0.9 | 0.9 | 0.00 | 0.00 | 0.00 | 72 | 1019.7 |
| 20260902135348 | 83 | 286 | 2.6 | 2.6 | 0.00 | 0.00 | 0.00 | 72 | 1019.6 |
| 20260902134846 | 83 | 291 | 1.7 | 2.6 | 0.00 | 0.00 | 0.00 | 74 | 1019.8 |
| 20260902134342 | 83 | 318 | 2.6 | 3.5 | 0.00 | 0.00 | 0.00 | 75 | 1019.8 |
| 20260902133837 | 82 | 303 | 0.9 | 0.9 | 0.00 | 0.00 | 0.00 | 77 | 1019.6 |
| 20260902133337 | 82 | 343 | 1.7 | 1.7 | 0.00 | 0.00 | 0.00 | 78 | 1019.9 |
| 20260902132832 | 82 | 275 | 1.7 | 3.5 | 0.00 | 0.00 | 0.00 | 78 | 1019.7 |
| 20260902132327 | 81 | 300 | 1.7 | 2.6 | 0.00 | 0.00 | 0.00 | 78 | 1019.6 |
| 20260902131823 | 81 | 293 | 1.7 | 3.5 | 0.00 | 0.00 | 0.00 | 78 | 1019.5 |
| 20260902131320 | 81 | 306 | 1.7 | 2.6 | 0.00 | 0.00 | 0.00 | 77 | 1019.6 |
| 20260902130819 | 80 | 258 | 0.9 | 2.6 | 0.00 | 0.00 | 0.00 | 78 | 1019.6 |
| 20260902130315 | 80 | 299 | 0.9 | 2.6 | 0.00 | 0.00 | 0.00 | 77 | 1019.5 |
| 20260902125810 | 80 | 291 | 2.6 | 3.5 | 0.00 | 0.00 | 0.00 | 77 | 1019.6 |
| 20260902125306 | 80 | 288 | 0.9 | 2.6 | 0.00 | 0.00 | 0.00 | 79 | 1019.6 |
| 20260902124802 | 80 | 298 | 1.7 | 1.7 | 0.00 | 0.00 | 0.00 | 78 | 1019.6 |
| 20260902124257 | 79 | 310 | 0.0 | 1.7 | 0.00 | 0.00 | 0.00 | 82 | 1019.5 |
| 20260902123758 | 78 | 258 | 0.9 | 0.9 | 0.00 | 0.00 | 0.00 | 83 | 1019.6 |
| 20260902123254 | 78 | 248 | 0.0 | 0.9 | 0.00 | 0.00 | 0.00 | 84 | 1019.4 |
| 20260902122752 | 77 | 223 | 0.0 | 0.9 | 0.00 | 0.00 | 0.00 | 85 | 1019.5 |
| 20260902122249 | 77 | 256 | 0.9 | 1.7 | 0.00 | 0.00 | 0.00 | 85 | 1019.5 |
| 20260902121748 | 76 | 246 | 0.0 | 1.7 | 0.00 | 0.00 | 0.00 | 86 | 1019.3 |
| 20260902121244 | 76 | 248 | 0.0 | 0.9 | 0.00 | 0.00 | 0.00 | 87 | 1019.1 |
| 20260902120739 | 75 | 253 | 1.7 | 1.7 | 0.00 | 0.00 | 0.00 | 87 | 1019.3 |
| 20260902120236 | 75 | 292 | 0.9 | 1.7 | 0.00 | 0.00 | 0.00 | 88 | 1019.1 |
| 20260902115736 | 74 | 265 | 0.9 | 0.9 | 0.00 | 0.00 | 0.00 | 89 | 1019.2 |
| 20260902115232 | 73 | 278 | 0.9 | 1.7 | 0.00 | 0.00 | 0.00 | 91 | 1019.0 |
| 20260902114727 | 73 | 256 | 0.9 | 0.9 | 0.00 | 0.00 | 0.00 | 93 | 1019.0 |
| 20260902114224 | 72 | 247 | 0.9 | 0.9 | 0.00 | 0.00 | 0.00 | 94 | 1019.2 |
| 20260902113723 | 72 | 244 | 0.0 | 0.0 | 0.00 | 0.00 | 0.00 | 97 | 1019.0 |
| 20260902113219 | 71 | 247 | 0.0 | 0.9 | 0.00 | 0.00 | 0.00 | 97 | 1019.0 |
| 20260902112718 | 71 | 251 | 0.0 | 0.0 | 0.00 | 0.00 | 0.00 | 97 | 1019.0 |
| 20260902112216 | 71 | 251 | 0.0 | 0.0 | 0.00 | 0.00 | 0.00 | 97 | 1018.8 |
| 20260902111711 | 71 | 252 | 0.0 | 0.0 | 0.00 | 0.00 | 0.00 | 97 | 1018.7 |
| 20260902111207 | 70 | 250 | 0.0 | 0.0 | 0.00 | 0.00 | 0.00 | 97 | 1018.8 |
| 20260902110702 | 70 | 243 | 0.0 | 0.0 | 0.00 | 0.00 | 0.00 | 97 | 1018.9 |
| 20260902110158 | 70 | 243 | 0.0 | 0.0 | 0.00 | 0.00 | 0.00 | 97 | 1018.7 |
| 20260902105658 | 70 | 243 | 0.0 | 0.0 | 0.00 | 0.00 | 0.00 | 97 | 1018.6 |
| 20260902105153 | 70 | 243 | 0.0 | 0.0 | 0.00 | 0.00 | 0.00 | 97 | 1018.7 |
| 20260902104648 | 70 | 242 | 0.0 | 0.0 | 0.00 | 0.00 | 0.00 | 97 | 1018.7 |
| 20260902104144 | 70 | 242 | 0.0 | 0.0 | 0.00 | 0.00 | 0.00 | 97 | 1018.7 |
| 20260902103643 | 70 | 242 | 0.0 | 0.0 | 0.00 | 0.00 | 0.00 | 97 | 1018.5 |
| 20260902103138 | 70 | 242 | 0.0 | 0.0 | 0.00 | 0.00 | 0.00 | 97 | 1018.5 |
| 20260902102634 | 70 | 242 | 0.0 | 0.0 | 0.00 | 0.00 | 0.00 | 97 | 1018.5 |
| 20260902102132 | 70 | 242 | 0.0 | 0.0 | 0.00 | 0.00 | 0.00 | 97 | 1018.6 |
| 20260902101627 | 70 | 243 | 0.0 | 0.0 | 0.00 | 0.00 | 0.00 | 97 | 1018.4 |
| 20260902101126 | 70 | 243 | 0.0 | 0.0 | 0.00 | 0.00 | 0.00 | 97 | 1018.4 |
| 20260902100621 | 70 | 242 | 0.0 | 0.0 | 0.00 | 0.00 | 0.00 | 97 | 1018.5 |
| 20260902100116 | 70 | 242 | 0.0 | 0.0 | 0.00 | 0.00 | 0.00 | 96 | 1018.5 |
| 20260902095615 | 70 | 243 | 0.0 | 0.0 | 0.00 | 0.00 | 0.00 | 97 | 1018.3 |
| 20260902095114 | 70 | 243 | 0.0 | 0.0 | 0.00 | 0.00 | 0.00 | 96 | 1018.3 |
| 20260902094609 | 71 | 243 | 0.0 | 0.0 | 0.00 | 0.00 | 0.00 | 96 | 1018.1 |
| 20260902094106 | 71 | 243 | 0.0 | 0.0 | 0.00 | 0.00 | 0.00 | 96 | 1018.3 |
| 20260902093606 | 71 | 243 | 0.0 | 0.0 | 0.00 | 0.00 | 0.00 | 96 | 1018.2 |
| 20260902093100 | 71 | 243 | 0.0 | 0.0 | 0.00 | 0.00 | 0.00 | 96 | 1018.2 |
| 20260902092554 | 71 | 243 | 0.0 | 0.0 | 0.00 | 0.00 | 0.00 | 96 | 1018.2 |
| 20260902092050 | 71 | 242 | 0.0 | 0.0 | 0.00 | 0.00 | 0.00 | 96 | 1018.2 |
| 20260902091545 | 71 | 242 | 0.0 | 0.0 | 0.00 | 0.00 | 0.00 | 95 | 1018.0 |
| 20260902091041 | 71 | 243 | 0.0 | 0.0 | 0.00 | 0.00 | 0.00 | 95 | 1018.1 |
| 20260902090537 | 71 | 243 | 0.0 | 0.0 | 0.00 | 0.00 | 0.00 | 95 | 1018.2 |
| 20260902090036 | 71 | 243 | 0.0 | 0.0 | 0.00 | 0.00 | 0.00 | 95 | 1018.1 |
| 20260902085530 | 71 | 243 | 0.0 | 0.0 | 0.00 | 0.00 | 0.00 | 95 | 1018.2 |
| 20260902085026 | 72 | 243 | 0.0 | 0.0 | 0.00 | 0.00 | 0.00 | 95 | 1018.1 |
| 20260902084522 | 72 | 243 | 0.0 | 0.0 | 0.00 | 0.00 | 0.00 | 95 | 1018.1 |
| 20260902084017 | 72 | 243 | 0.0 | 0.0 | 0.00 | 0.00 | 0.00 | 95 | 1018.1 |
| 20260902083512 | 72 | 243 | 0.0 | 0.0 | 0.00 | 0.00 | 0.00 | 95 | 1018.2 |
| 20260902083007 | 72 | 243 | 0.0 | 0.0 | 0.00 | 0.00 | 0.00 | 96 | 1018.1 |
| 20260902082502 | 72 | 246 | 0.0 | 0.0 | 0.00 | 0.00 | 0.00 | 96 | 1018.2 |
| 20260902081959 | 72 | 246 | 0.0 | 0.0 | 0.00 | 0.00 | 0.00 | 96 | 1018.1 |
| 20260902081456 | 71 | 246 | 0.0 | 0.0 | 0.00 | 0.00 | 0.00 | 95 | 1018.0 |
| 20260902080955 | 71 | 245 | 0.0 | 0.0 | 0.00 | 0.00 | 0.00 | 95 | 1018.1 |
| 20260902080451 | 71 | 245 | 0.0 | 0.0 | 0.00 | 0.00 | 0.00 | 95 | 1018.1 |
| 20260902075950 | 71 | 245 | 0.0 | 0.0 | 0.00 | 0.00 | 0.00 | 95 | 1018.1 |
| 20260902075447 | 71 | 246 | 0.0 | 0.0 | 0.00 | 0.00 | 0.00 | 95 | 1017.9 |
| 20260902074942 | 71 | 246 | 0.0 | 0.0 | 0.00 | 0.00 | 0.00 | 95 | 1017.8 |
| 20260902074437 | 71 | 245 | 0.0 | 0.0 | 0.00 | 0.00 | 0.00 | 95 | 1017.9 |
| 20260902073932 | 72 | 245 | 0.0 | 0.0 | 0.00 | 0.00 | 0.00 | 95 | 1017.9 |
| 20260902073429 | 72 | 245 | 0.0 | 0.0 | 0.00 | 0.00 | 0.00 | 95 | 1017.8 |
| 20260902072924 | 72 | 245 | 0.0 | 0.0 | 0.00 | 0.00 | 0.00 | 95 | 1017.8 |
| 20260902072420 | 72 | 245 | 0.0 | 0.0 | 0.00 | 0.00 | 0.00 | 95 | 1017.8 |
| 20260902071916 | 72 | 245 | 0.0 | 0.0 | 0.00 | 0.00 | 0.00 | 95 | 1017.8 |
| 20260902071416 | 72 | 245 | 0.0 | 0.0 | 0.00 | 0.00 | 0.00 | 95 | 1017.9 |
| 20260902070912 | 72 | 247 | 0.0 | 0.0 | 0.00 | 0.00 | 0.00 | 95 | 1017.8 |
| 20260902070408 | 72 | 247 | 0.0 | 0.0 | 0.00 | 0.00 | 0.00 | 96 | 1017.9 |
| 20260902065906 | 72 | 247 | 0.0 | 0.0 | 0.00 | 0.00 | 0.00 | 96 | 1017.8 |
| 20260902065401 | 72 | 247 | 0.0 | 0.0 | 0.00 | 0.00 | 0.00 | 96 | 1018.0 |
| 20260902064857 | 72 | 248 | 0.0 | 0.0 | 0.00 | 0.00 | 0.00 | 96 | 1018.0 |
| 20260902064353 | 72 | 248 | 0.0 | 0.0 | 0.00 | 0.00 | 0.00 | 97 | 1017.7 |
| 20260902063848 | 72 | 248 | 0.0 | 0.0 | 0.00 | 0.00 | 0.00 | 97 | 1017.8 |
| 20260902063348 | 71 | 248 | 0.0 | 0.0 | 0.00 | 0.00 | 0.00 | 97 | 1017.9 |
| 20260902062848 | 71 | 248 | 0.0 | 0.0 | 0.00 | 0.00 | 0.00 | 97 | 1018.1 |
| 20260902062348 | 71 | 248 | 0.0 | 0.0 | 0.00 | 0.00 | 0.00 | 97 | 1018.2 |
| 20260902061848 | 71 | 248 | 0.0 | 0.0 | 0.00 | 0.00 | 0.00 | 97 | 1018.2 |
| 20260902061343 | 71 | 251 | 0.0 | 0.0 | 0.00 | 0.00 | 0.00 | 97 | 1018.2 |
| 20260902060839 | 71 | 251 | 0.0 | 0.0 | 0.00 | 0.00 | 0.00 | 97 | 1018.2 |
| 20260902060334 | 71 | 251 | 0.0 | 0.0 | 0.00 | 0.00 | 0.00 | 97 | 1018.2 |
| 20260902055830 | 71 | 251 | 0.0 | 0.0 | 0.00 | 0.00 | 0.00 | 97 | 1018.2 |
| 20260902055326 | 71 | 251 | 0.0 | 0.0 | 0.00 | 0.00 | 0.00 | 97 | 1017.9 |
| 20260902054821 | 71 | 251 | 0.0 | 0.0 | 0.00 | 0.00 | 0.00 | 97 | 1018.1 |
| 20260902054317 | 71 | 251 | 0.0 | 0.0 | 0.00 | 0.00 | 0.00 | 97 | 1018.1 |
| 20260902053812 | 71 | 251 | 0.0 | 0.0 | 0.00 | 0.00 | 0.00 | 96 | 1018.0 |
| 20260902053307 | 71 | 251 | 0.0 | 0.0 | 0.00 | 0.00 | 0.00 | 96 | 1017.9 |
| 20260902052806 | 71 | 251 | 0.0 | 0.0 | 0.00 | 0.00 | 0.00 | 96 | 1018.0 |
| 20260902052306 | 71 | 251 | 0.0 | 0.0 | 0.00 | 0.00 | 0.00 | 96 | 1018.1 |
| 20260902051756 | 72 | 251 | 0.0 | 0.0 | 0.00 | 0.00 | 0.00 | 96 | 1018.0 |
| 20260902051255 | 71 | 251 | 0.9 | 0.0 | 0.00 | 0.00 | 0.00 | 96 | 1018.0 |
| 20260902050750 | 72 | 252 | 0.0 | 0.0 | 0.00 | 0.00 | 0.00 | 96 | 1018.0 |
| 20260902050245 | 72 | 252 | 0.0 | 0.0 | 0.00 | 0.00 | 0.00 | 96 | 1018.0 |
| 20260902045745 | 72 | 252 | 0.0 | 0.0 | 0.00 | 0.00 | 0.00 | 96 | 1018.1 |
| 20260902045241 | 72 | 252 | 0.0 | 0.0 | 0.00 | 0.00 | 0.00 | 96 | 1017.9 |
| 20260902044737 | 72 | 252 | 0.0 | 0.0 | 0.00 | 0.00 | 0.00 | 96 | 1017.8 |
| 20260902044232 | 72 | 252 | 0.0 | 0.0 | 0.00 | 0.00 | 0.00 | 96 | 1017.9 |